sensor_id;sensor_type;location;lat;lon;timestamp;temperature;humidity
60860;DHT22;46694;54.382;9.708;2023-03-15T00:00:18;2.80;99.90
60860;DHT22;46694;54.382;9.708;2023-03-15T00:02:59;2.80;99.90
60860;DHT22;46694;54.382;9.708;2023-03-15T00:05:44;2.80;99.90
60860;DHT22;46694;54.382;9.708;2023-03-15T00:08:24;2.80;99.90
60860;DHT22;46694;54.382;9.708;2023-03-15T00:11:05;2.80;99.90
60860;DHT22;46694;54.382;9.708;2023-03-15T00:13:45;2.80;99.90
60860;DHT22;46694;54.382;9.708;2023-03-15T00:16:25;2.90;99.90
60860;DHT22;46694;54.382;9.708;2023-03-15T00:19:05;2.80;99.90
60860;DHT22;46694;54.382;9.708;2023-03-15T00:21:44;2.90;99.90
60860;DHT22;46694;54.382;9.708;2023-03-15T00:24:24;2.80;99.90
60860;DHT22;46694;54.382;9.708;2023-03-15T00:27:04;2.80;99.90
60860;DHT22;46694;54.382;9.708;2023-03-15T00:29:44;2.80;99.90
60860;DHT22;46694;54.382;9.708;2023-03-15T00:32:23;2.80;99.90
60860;DHT22;46694;54.382;9.708;2023-03-15T00:35:03;2.80;99.90
60860;DHT22;46694;54.382;9.708;2023-03-15T00:37:43;2.80;99.90
60860;DHT22;46694;54.382;9.708;2023-03-15T00:40:23;2.70;99.90
60860;DHT22;46694;54.382;9.708;2023-03-15T00:43:03;2.70;99.90
60860;DHT22;46694;54.382;9.708;2023-03-15T00:45:43;2.70;99.90
60860;DHT22;46694;54.382;9.708;2023-03-15T00:48:29;2.70;99.90
60860;DHT22;46694;54.382;9.708;2023-03-15T00:51:14;2.70;99.90
60860;DHT22;46694;54.382;9.708;2023-03-15T00:53:55;2.70;99.90
60860;DHT22;46694;54.382;9.708;2023-03-15T00:56:35;2.70;99.90
60860;DHT22;46694;54.382;9.708;2023-03-15T00:59:15;2.70;99.90
60860;DHT22;46694;54.382;9.708;2023-03-15T01:01:54;2.70;99.90
60860;DHT22;46694;54.382;9.708;2023-03-15T01:04:34;2.70;99.90
60860;DHT22;46694;54.382;9.708;2023-03-15T01:07:14;2.70;99.90
60860;DHT22;46694;54.382;9.708;2023-03-15T01:09:54;2.60;99.90
60860;DHT22;46694;54.382;9.708;2023-03-15T01:12:34;2.60;99.90
60860;DHT22;46694;54.382;9.708;2023-03-15T01:15:14;2.60;99.90
60860;DHT22;46694;54.382;9.708;2023-03-15T01:17:55;2.60;99.90
60860;DHT22;46694;54.382;9.708;2023-03-15T01:20:35;2.50;99.90
60860;DHT22;46694;54.382;9.708;2023-03-15T01:23:14;2.50;99.90
60860;DHT22;46694;54.382;9.708;2023-03-15T01:25:54;2.40;99.90
60860;DHT22;46694;54.382;9.708;2023-03-15T01:28:33;2.40;99.90
60860;DHT22;46694;54.382;9.708;2023-03-15T01:31:17;2.30;99.90
60860;DHT22;46694;54.382;9.708;2023-03-15T01:33:59;2.40;99.90
60860;DHT22;46694;54.382;9.708;2023-03-15T01:36:39;2.40;99.90
60860;DHT22;46694;54.382;9.708;2023-03-15T01:39:18;2.40;99.90
60860;DHT22;46694;54.382;9.708;2023-03-15T01:41:58;2.50;99.90
60860;DHT22;46694;54.382;9.708;2023-03-15T01:44:58;2.50;99.90
60860;DHT22;46694;54.382;9.708;2023-03-15T01:47:41;2.60;99.90
60860;DHT22;46694;54.382;9.708;2023-03-15T01:50:20;2.60;99.90
60860;DHT22;46694;54.382;9.708;2023-03-15T01:53:03;2.60;99.90
60860;DHT22;46694;54.382;9.708;2023-03-15T01:55:43;2.60;99.90
60860;DHT22;46694;54.382;9.708;2023-03-15T01:58:23;2.60;99.90
60860;DHT22;46694;54.382;9.708;2023-03-15T02:01:05;2.60;99.90
60860;DHT22;46694;54.382;9.708;2023-03-15T02:03:48;2.60;99.90
60860;DHT22;46694;54.382;9.708;2023-03-15T02:06:30;2.60;99.90
60860;DHT22;46694;54.382;9.708;2023-03-15T02:09:14;2.50;99.90
60860;DHT22;46694;54.382;9.708;2023-03-15T02:11:56;2.50;99.90
60860;DHT22;46694;54.382;9.708;2023-03-15T02:14:37;2.50;99.90
60860;DHT22;46694;54.382;9.708;2023-03-15T02:17:18;2.50;99.90
60860;DHT22;46694;54.382;9.708;2023-03-15T02:22:54;2.50;99.90
60860;DHT22;46694;54.382;9.708;2023-03-15T02:29:02;2.60;99.90
60860;DHT22;46694;54.382;9.708;2023-03-15T02:31:42;2.60;99.90
60860;DHT22;46694;54.382;9.708;2023-03-15T02:34:22;2.50;99.90
60860;DHT22;46694;54.382;9.708;2023-03-15T02:37:03;2.50;99.90
60860;DHT22;46694;54.382;9.708;2023-03-15T02:39:46;2.50;99.90
60860;DHT22;46694;54.382;9.708;2023-03-15T02:42:26;2.50;99.90
60860;DHT22;46694;54.382;9.708;2023-03-15T02:45:06;2.50;99.90
60860;DHT22;46694;54.382;9.708;2023-03-15T02:47:46;2.60;99.90
60860;DHT22;46694;54.382;9.708;2023-03-15T02:50:27;2.60;99.90
60860;DHT22;46694;54.382;9.708;2023-03-15T02:53:06;2.60;99.90
60860;DHT22;46694;54.382;9.708;2023-03-15T02:55:46;2.60;99.90
60860;DHT22;46694;54.382;9.708;2023-03-15T02:58:25;2.60;99.90
60860;DHT22;46694;54.382;9.708;2023-03-15T03:01:05;2.60;99.90
60860;DHT22;46694;54.382;9.708;2023-03-15T03:03:45;2.60;99.90
60860;DHT22;46694;54.382;9.708;2023-03-15T03:06:25;2.50;99.90
60860;DHT22;46694;54.382;9.708;2023-03-15T03:09:05;2.50;99.90
60860;DHT22;46694;54.382;9.708;2023-03-15T03:11:45;2.50;99.90
60860;DHT22;46694;54.382;9.708;2023-03-15T03:14:24;2.40;99.90
60860;DHT22;46694;54.382;9.708;2023-03-15T03:17:04;2.40;99.90
60860;DHT22;46694;54.382;9.708;2023-03-15T03:19:43;2.30;99.90
60860;DHT22;46694;54.382;9.708;2023-03-15T03:22:23;2.30;99.90
60860;DHT22;46694;54.382;9.708;2023-03-15T03:25:03;2.30;99.90
60860;DHT22;46694;54.382;9.708;2023-03-15T03:27:44;2.20;99.90
60860;DHT22;46694;54.382;9.708;2023-03-15T03:30:24;2.20;99.90
60860;DHT22;46694;54.382;9.708;2023-03-15T03:33:04;2.20;99.90
60860;DHT22;46694;54.382;9.708;2023-03-15T03:35:43;2.10;99.90
60860;DHT22;46694;54.382;9.708;2023-03-15T03:38:22;2.10;99.90
60860;DHT22;46694;54.382;9.708;2023-03-15T03:41:02;2.00;99.90
60860;DHT22;46694;54.382;9.708;2023-03-15T03:43:41;2.00;99.90
60860;DHT22;46694;54.382;9.708;2023-03-15T03:46:21;2.00;99.90
60860;DHT22;46694;54.382;9.708;2023-03-15T03:49:01;2.00;99.90
60860;DHT22;46694;54.382;9.708;2023-03-15T03:51:40;1.90;99.90
60860;DHT22;46694;54.382;9.708;2023-03-15T03:54:20;1.90;99.90
60860;DHT22;46694;54.382;9.708;2023-03-15T03:56:59;1.90;99.90
60860;DHT22;46694;54.382;9.708;2023-03-15T03:59:39;1.80;99.90
60860;DHT22;46694;54.382;9.708;2023-03-15T04:02:18;1.90;99.90
60860;DHT22;46694;54.382;9.708;2023-03-15T04:04:58;1.80;99.90
60860;DHT22;46694;54.382;9.708;2023-03-15T04:07:38;1.80;99.90
60860;DHT22;46694;54.382;9.708;2023-03-15T04:10:17;1.80;99.90
60860;DHT22;46694;54.382;9.708;2023-03-15T04:12:57;1.80;99.90
60860;DHT22;46694;54.382;9.708;2023-03-15T04:15:36;1.70;99.90
60860;DHT22;46694;54.382;9.708;2023-03-15T04:18:16;1.70;99.90
60860;DHT22;46694;54.382;9.708;2023-03-15T04:20:56;1.70;99.90
60860;DHT22;46694;54.382;9.708;2023-03-15T04:23:36;1.60;99.90
60860;DHT22;46694;54.382;9.708;2023-03-15T04:26:15;1.60;99.90
60860;DHT22;46694;54.382;9.708;2023-03-15T04:28:57;1.60;99.90
60860;DHT22;46694;54.382;9.708;2023-03-15T04:31:36;1.60;99.90
60860;DHT22;46694;54.382;9.708;2023-03-15T04:34:16;1.60;99.90
60860;DHT22;46694;54.382;9.708;2023-03-15T04:36:56;1.60;99.90
60860;DHT22;46694;54.382;9.708;2023-03-15T04:39:35;1.60;99.90
60860;DHT22;46694;54.382;9.708;2023-03-15T04:42:17;1.60;99.90
60860;DHT22;46694;54.382;9.708;2023-03-15T04:44:56;1.60;99.90
60860;DHT22;46694;54.382;9.708;2023-03-15T04:47:36;1.60;99.90
60860;DHT22;46694;54.382;9.708;2023-03-15T04:50:16;1.60;99.90
60860;DHT22;46694;54.382;9.708;2023-03-15T04:52:59;1.50;99.90
60860;DHT22;46694;54.382;9.708;2023-03-15T04:55:39;1.50;99.90
60860;DHT22;46694;54.382;9.708;2023-03-15T04:58:19;1.50;99.90
60860;DHT22;46694;54.382;9.708;2023-03-15T05:00:59;1.50;99.90
60860;DHT22;46694;54.382;9.708;2023-03-15T05:03:38;1.50;99.90
60860;DHT22;46694;54.382;9.708;2023-03-15T05:06:18;1.50;99.90
60860;DHT22;46694;54.382;9.708;2023-03-15T05:08:57;1.40;99.90
60860;DHT22;46694;54.382;9.708;2023-03-15T05:11:37;1.40;99.90
60860;DHT22;46694;54.382;9.708;2023-03-15T05:14:16;1.40;99.90
60860;DHT22;46694;54.382;9.708;2023-03-15T05:16:56;1.40;99.90
60860;DHT22;46694;54.382;9.708;2023-03-15T05:19:37;1.40;99.90
60860;DHT22;46694;54.382;9.708;2023-03-15T05:22:17;1.40;99.90
60860;DHT22;46694;54.382;9.708;2023-03-15T05:24:57;1.40;99.90
60860;DHT22;46694;54.382;9.708;2023-03-15T05:27:37;1.40;99.90
60860;DHT22;46694;54.382;9.708;2023-03-15T05:30:17;1.40;99.90
60860;DHT22;46694;54.382;9.708;2023-03-15T05:32:57;1.40;99.90
60860;DHT22;46694;54.382;9.708;2023-03-15T05:35:36;1.50;99.90
60860;DHT22;46694;54.382;9.708;2023-03-15T05:38:16;1.50;99.90
60860;DHT22;46694;54.382;9.708;2023-03-15T05:40:55;1.50;99.90
60860;DHT22;46694;54.382;9.708;2023-03-15T05:43:35;1.50;99.90
60860;DHT22;46694;54.382;9.708;2023-03-15T05:46:14;1.50;99.90
60860;DHT22;46694;54.382;9.708;2023-03-15T05:48:54;1.50;99.90
60860;DHT22;46694;54.382;9.708;2023-03-15T05:51:34;1.50;99.90
60860;DHT22;46694;54.382;9.708;2023-03-15T05:54:13;1.50;99.90
60860;DHT22;46694;54.382;9.708;2023-03-15T05:56:53;1.50;99.90
60860;DHT22;46694;54.382;9.708;2023-03-15T05:59:32;1.50;99.90
60860;DHT22;46694;54.382;9.708;2023-03-15T06:02:12;1.50;99.90
60860;DHT22;46694;54.382;9.708;2023-03-15T06:04:51;1.50;99.90
60860;DHT22;46694;54.382;9.708;2023-03-15T06:07:31;1.50;99.90
60860;DHT22;46694;54.382;9.708;2023-03-15T06:10:11;1.50;99.90
60860;DHT22;46694;54.382;9.708;2023-03-15T06:12:52;1.50;99.90
60860;DHT22;46694;54.382;9.708;2023-03-15T06:15:31;1.50;99.90
60860;DHT22;46694;54.382;9.708;2023-03-15T06:18:11;1.50;99.90
60860;DHT22;46694;54.382;9.708;2023-03-15T06:20:51;1.50;99.90
60860;DHT22;46694;54.382;9.708;2023-03-15T06:23:31;1.50;99.90
60860;DHT22;46694;54.382;9.708;2023-03-15T06:26:10;1.50;99.90
60860;DHT22;46694;54.382;9.708;2023-03-15T06:28:52;1.50;99.90
60860;DHT22;46694;54.382;9.708;2023-03-15T06:31:32;1.50;99.90
60860;DHT22;46694;54.382;9.708;2023-03-15T06:34:14;1.50;99.90
60860;DHT22;46694;54.382;9.708;2023-03-15T06:36:54;1.50;99.90
60860;DHT22;46694;54.382;9.708;2023-03-15T06:39:34;1.50;99.90
60860;DHT22;46694;54.382;9.708;2023-03-15T06:42:13;1.50;99.90
60860;DHT22;46694;54.382;9.708;2023-03-15T06:44:53;1.50;99.90
60860;DHT22;46694;54.382;9.708;2023-03-15T06:47:33;1.50;99.90
60860;DHT22;46694;54.382;9.708;2023-03-15T06:50:12;1.50;99.90
60860;DHT22;46694;54.382;9.708;2023-03-15T06:52:52;1.60;99.90
60860;DHT22;46694;54.382;9.708;2023-03-15T06:55:31;1.60;99.90
60860;DHT22;46694;54.382;9.708;2023-03-15T06:58:11;1.60;99.90
60860;DHT22;46694;54.382;9.708;2023-03-15T07:00:51;1.70;99.90
60860;DHT22;46694;54.382;9.708;2023-03-15T07:03:30;1.80;99.90
60860;DHT22;46694;54.382;9.708;2023-03-15T07:06:10;1.80;99.90
60860;DHT22;46694;54.382;9.708;2023-03-15T07:08:50;1.90;99.90
60860;DHT22;46694;54.382;9.708;2023-03-15T07:11:29;2.00;99.90
60860;DHT22;46694;54.382;9.708;2023-03-15T07:14:09;2.10;99.90
60860;DHT22;46694;54.382;9.708;2023-03-15T07:16:48;2.30;99.90
60860;DHT22;46694;54.382;9.708;2023-03-15T07:19:28;2.50;99.90
60860;DHT22;46694;54.382;9.708;2023-03-15T07:25:43;2.80;99.90
60860;DHT22;46694;54.382;9.708;2023-03-15T07:28:23;2.90;99.90
60860;DHT22;46694;54.382;9.708;2023-03-15T07:31:05;3.00;99.90
60860;DHT22;46694;54.382;9.708;2023-03-15T07:33:44;3.10;99.90
60860;DHT22;46694;54.382;9.708;2023-03-15T07:36:24;3.10;99.90
60860;DHT22;46694;54.382;9.708;2023-03-15T07:39:04;3.10;99.90
60860;DHT22;46694;54.382;9.708;2023-03-15T07:41:43;3.00;99.90
60860;DHT22;46694;54.382;9.708;2023-03-15T07:44:23;2.90;99.90
60860;DHT22;46694;54.382;9.708;2023-03-15T07:50:50;3.10;99.90
60860;DHT22;46694;54.382;9.708;2023-03-15T07:53:30;3.60;99.90
60860;DHT22;46694;54.382;9.708;2023-03-15T07:56:09;3.80;99.90
60860;DHT22;46694;54.382;9.708;2023-03-15T07:58:49;3.70;99.90
60860;DHT22;46694;54.382;9.708;2023-03-15T08:01:29;3.50;99.90
60860;DHT22;46694;54.382;9.708;2023-03-15T08:04:08;3.30;99.90
60860;DHT22;46694;54.382;9.708;2023-03-15T08:06:47;3.10;99.90
60860;DHT22;46694;54.382;9.708;2023-03-15T08:09:27;2.90;99.90
60860;DHT22;46694;54.382;9.708;2023-03-15T08:12:07;2.80;99.90
60860;DHT22;46694;54.382;9.708;2023-03-15T08:14:46;2.80;99.90
60860;DHT22;46694;54.382;9.708;2023-03-15T08:17:26;2.80;99.90
60860;DHT22;46694;54.382;9.708;2023-03-15T08:20:15;3.10;99.90
60860;DHT22;46694;54.382;9.708;2023-03-15T08:22:58;3.50;99.90
60860;DHT22;46694;54.382;9.708;2023-03-15T08:25:38;3.90;99.90
60860;DHT22;46694;54.382;9.708;2023-03-15T08:28:19;4.30;99.90
60860;DHT22;46694;54.382;9.708;2023-03-15T08:30:58;4.60;99.90
60860;DHT22;46694;54.382;9.708;2023-03-15T08:33:39;4.90;99.90
60860;DHT22;46694;54.382;9.708;2023-03-15T08:36:19;5.20;99.90
60860;DHT22;46694;54.382;9.708;2023-03-15T08:38:58;5.50;99.90
60860;DHT22;46694;54.382;9.708;2023-03-15T08:41:38;5.80;99.90
60860;DHT22;46694;54.382;9.708;2023-03-15T08:44:18;6.10;99.90
60860;DHT22;46694;54.382;9.708;2023-03-15T08:46:58;6.40;99.90
60860;DHT22;46694;54.382;9.708;2023-03-15T08:49:38;6.60;99.90
60860;DHT22;46694;54.382;9.708;2023-03-15T08:52:18;6.70;99.90
60860;DHT22;46694;54.382;9.708;2023-03-15T08:54:58;6.80;99.90
60860;DHT22;46694;54.382;9.708;2023-03-15T08:57:38;7.10;99.90
60860;DHT22;46694;54.382;9.708;2023-03-15T09:00:17;7.30;99.90
60860;DHT22;46694;54.382;9.708;2023-03-15T09:03:01;7.50;99.90
60860;DHT22;46694;54.382;9.708;2023-03-15T09:05:41;7.60;99.90
60860;DHT22;46694;54.382;9.708;2023-03-15T09:08:20;7.70;99.90
60860;DHT22;46694;54.382;9.708;2023-03-15T09:11:00;7.70;99.90
60860;DHT22;46694;54.382;9.708;2023-03-15T09:13:39;7.50;99.90
60860;DHT22;46694;54.382;9.708;2023-03-15T09:16:19;7.30;99.90
60860;DHT22;46694;54.382;9.708;2023-03-15T09:18:59;7.00;99.90
60860;DHT22;46694;54.382;9.708;2023-03-15T09:21:38;6.70;99.90
60860;DHT22;46694;54.382;9.708;2023-03-15T09:24:18;6.40;99.90
60860;DHT22;46694;54.382;9.708;2023-03-15T09:26:58;6.20;99.90
60860;DHT22;46694;54.382;9.708;2023-03-15T09:29:37;6.10;99.90
60860;DHT22;46694;54.382;9.708;2023-03-15T09:32:17;6.10;99.90
60860;DHT22;46694;54.382;9.708;2023-03-15T09:34:57;6.00;99.90
60860;DHT22;46694;54.382;9.708;2023-03-15T09:37:36;5.90;99.90
60860;DHT22;46694;54.382;9.708;2023-03-15T09:49:13;6.20;99.90
60860;DHT22;46694;54.382;9.708;2023-03-15T09:55:04;6.70;99.90
60860;DHT22;46694;54.382;9.708;2023-03-15T09:58:09;6.90;99.90
60860;DHT22;46694;54.382;9.708;2023-03-15T10:00:53;7.20;99.90
60860;DHT22;46694;54.382;9.708;2023-03-15T10:03:50;7.40;99.90
60860;DHT22;46694;54.382;9.708;2023-03-15T10:06:31;7.80;99.90
60860;DHT22;46694;54.382;9.708;2023-03-15T10:09:17;8.00;99.90
60860;DHT22;46694;54.382;9.708;2023-03-15T10:12:04;8.20;99.90
60860;DHT22;46694;54.382;9.708;2023-03-15T10:15:22;8.40;99.90
60860;DHT22;46694;54.382;9.708;2023-03-15T10:18:59;8.60;99.90
60860;DHT22;46694;54.382;9.708;2023-03-15T10:21:34;8.80;99.90
60860;DHT22;46694;54.382;9.708;2023-03-15T10:24:19;8.90;99.90
60860;DHT22;46694;54.382;9.708;2023-03-15T10:27:17;9.10;99.90
60860;DHT22;46694;54.382;9.708;2023-03-15T10:29:59;9.20;99.90
60860;DHT22;46694;54.382;9.708;2023-03-15T10:32:42;9.00;99.90
60860;DHT22;46694;54.382;9.708;2023-03-15T10:35:22;9.00;99.90
60860;DHT22;46694;54.382;9.708;2023-03-15T10:38:02;8.90;99.90
60860;DHT22;46694;54.382;9.708;2023-03-15T10:40:56;8.60;99.90
60860;DHT22;46694;54.382;9.708;2023-03-15T10:43:37;8.40;99.90
60860;DHT22;46694;54.382;9.708;2023-03-15T10:46:23;8.60;99.90
60860;DHT22;46694;54.382;9.708;2023-03-15T10:49:15;8.40;99.90
60860;DHT22;46694;54.382;9.708;2023-03-15T10:51:57;7.90;99.90
60860;DHT22;46694;54.382;9.708;2023-03-15T10:54:39;7.60;99.90
60860;DHT22;46694;54.382;9.708;2023-03-15T10:57:21;7.30;99.90
60860;DHT22;46694;54.382;9.708;2023-03-15T11:00:29;7.10;99.90
60860;DHT22;46694;54.382;9.708;2023-03-15T11:03:17;6.90;99.90
60860;DHT22;46694;54.382;9.708;2023-03-15T11:06:18;6.80;99.90
60860;DHT22;46694;54.382;9.708;2023-03-15T11:09:41;6.90;99.90
60860;DHT22;46694;54.382;9.708;2023-03-15T11:15:12;7.50;99.90
60860;DHT22;46694;54.382;9.708;2023-03-15T11:17:52;7.90;99.90
60860;DHT22;46694;54.382;9.708;2023-03-15T11:20:39;8.30;99.90
60860;DHT22;46694;54.382;9.708;2023-03-15T11:23:28;8.50;99.90
60860;DHT22;46694;54.382;9.708;2023-03-15T11:26:20;8.60;99.90
60860;DHT22;46694;54.382;9.708;2023-03-15T11:31:45;8.30;99.90
60860;DHT22;46694;54.382;9.708;2023-03-15T11:37:21;8.00;99.90
60860;DHT22;46694;54.382;9.708;2023-03-15T11:43:37;7.90;99.90
60860;DHT22;46694;54.382;9.708;2023-03-15T11:49:50;7.60;99.90
60860;DHT22;46694;54.382;9.708;2023-03-15T11:52:31;7.30;99.90
60860;DHT22;46694;54.382;9.708;2023-03-15T11:55:23;7.10;99.90
60860;DHT22;46694;54.382;9.708;2023-03-15T12:01:24;7.00;99.90
60860;DHT22;46694;54.382;9.708;2023-03-15T12:04:27;7.10;99.90
60860;DHT22;46694;54.382;9.708;2023-03-15T12:07:34;7.40;99.90
60860;DHT22;46694;54.382;9.708;2023-03-15T12:10:17;7.70;99.90
60860;DHT22;46694;54.382;9.708;2023-03-15T12:13:17;8.00;99.90
60860;DHT22;46694;54.382;9.708;2023-03-15T12:16:05;8.10;99.90
60860;DHT22;46694;54.382;9.708;2023-03-15T12:18:45;8.00;99.90
60860;DHT22;46694;54.382;9.708;2023-03-15T12:21:34;7.70;99.90
60860;DHT22;46694;54.382;9.708;2023-03-15T12:27:05;6.50;99.90
60860;DHT22;46694;54.382;9.708;2023-03-15T12:29:58;6.10;99.90
60860;DHT22;46694;54.382;9.708;2023-03-15T12:32:46;5.90;99.90
60860;DHT22;46694;54.382;9.708;2023-03-15T12:35:37;5.70;99.90
60860;DHT22;46694;54.382;9.708;2023-03-15T12:38:20;5.60;99.90
60860;DHT22;46694;54.382;9.708;2023-03-15T12:41:07;5.60;99.90
60860;DHT22;46694;54.382;9.708;2023-03-15T12:43:49;5.50;99.90
60860;DHT22;46694;54.382;9.708;2023-03-15T12:57:38;6.00;99.90
60860;DHT22;46694;54.382;9.708;2023-03-15T13:00:27;6.20;99.90
60860;DHT22;46694;54.382;9.708;2023-03-15T13:03:19;6.50;99.90
60860;DHT22;46694;54.382;9.708;2023-03-15T13:06:21;6.70;99.90
60860;DHT22;46694;54.382;9.708;2023-03-15T13:09:23;7.00;99.90
60860;DHT22;46694;54.382;9.708;2023-03-15T13:12:24;7.20;99.90
60860;DHT22;46694;54.382;9.708;2023-03-15T13:15:11;7.40;99.90
60860;DHT22;46694;54.382;9.708;2023-03-15T13:17:57;7.50;99.90
60860;DHT22;46694;54.382;9.708;2023-03-15T13:21:12;7.50;99.90
60860;DHT22;46694;54.382;9.708;2023-03-15T13:23:57;7.40;99.90
60860;DHT22;46694;54.382;9.708;2023-03-15T13:27:04;7.40;99.90
60860;DHT22;46694;54.382;9.708;2023-03-15T13:29:43;7.30;99.90
60860;DHT22;46694;54.382;9.708;2023-03-15T13:32:22;7.40;99.90
60860;DHT22;46694;54.382;9.708;2023-03-15T13:35:02;7.40;99.90
60860;DHT22;46694;54.382;9.708;2023-03-15T13:37:42;7.40;99.90
60860;DHT22;46694;54.382;9.708;2023-03-15T13:40:23;7.40;99.90
60860;DHT22;46694;54.382;9.708;2023-03-15T13:43:03;7.40;99.90
60860;DHT22;46694;54.382;9.708;2023-03-15T13:45:43;7.40;99.90
60860;DHT22;46694;54.382;9.708;2023-03-15T13:48:26;7.50;99.90
60860;DHT22;46694;54.382;9.708;2023-03-15T13:51:27;7.60;99.90
60860;DHT22;46694;54.382;9.708;2023-03-15T13:54:35;7.60;99.90
60860;DHT22;46694;54.382;9.708;2023-03-15T13:57:18;7.50;99.90
60860;DHT22;46694;54.382;9.708;2023-03-15T14:00:03;7.40;99.90
60860;DHT22;46694;54.382;9.708;2023-03-15T14:02:56;7.30;99.90
60860;DHT22;46694;54.382;9.708;2023-03-15T14:05:48;7.30;99.90
60860;DHT22;46694;54.382;9.708;2023-03-15T14:08:31;7.30;99.90
60860;DHT22;46694;54.382;9.708;2023-03-15T14:14:25;7.20;99.90
60860;DHT22;46694;54.382;9.708;2023-03-15T14:17:16;7.20;99.90
60860;DHT22;46694;54.382;9.708;2023-03-15T14:20:06;7.20;99.90
60860;DHT22;46694;54.382;9.708;2023-03-15T14:22:46;7.30;99.90
60860;DHT22;46694;54.382;9.708;2023-03-15T14:25:26;7.40;99.90
60860;DHT22;46694;54.382;9.708;2023-03-15T14:28:12;7.40;99.90
60860;DHT22;46694;54.382;9.708;2023-03-15T14:30:56;7.40;99.90
60860;DHT22;46694;54.382;9.708;2023-03-15T14:33:40;7.40;99.90
60860;DHT22;46694;54.382;9.708;2023-03-15T14:36:24;7.40;99.90
60860;DHT22;46694;54.382;9.708;2023-03-15T14:39:27;7.40;99.90
60860;DHT22;46694;54.382;9.708;2023-03-15T14:42:16;7.40;99.90
60860;DHT22;46694;54.382;9.708;2023-03-15T14:44:56;7.40;99.90
60860;DHT22;46694;54.382;9.708;2023-03-15T14:47:37;7.40;99.90
60860;DHT22;46694;54.382;9.708;2023-03-15T14:50:32;7.40;99.90
60860;DHT22;46694;54.382;9.708;2023-03-15T14:53:17;7.50;99.90
60860;DHT22;46694;54.382;9.708;2023-03-15T14:55:58;7.60;99.90
60860;DHT22;46694;54.382;9.708;2023-03-15T14:58:39;7.50;99.90
60860;DHT22;46694;54.382;9.708;2023-03-15T15:01:23;7.40;99.90
60860;DHT22;46694;54.382;9.708;2023-03-15T15:04:04;7.20;99.90
60860;DHT22;46694;54.382;9.708;2023-03-15T15:06:43;7.10;99.90
60860;DHT22;46694;54.382;9.708;2023-03-15T15:09:29;7.00;99.90
60860;DHT22;46694;54.382;9.708;2023-03-15T15:12:10;7.00;99.90
60860;DHT22;46694;54.382;9.708;2023-03-15T15:14:49;7.00;99.90
60860;DHT22;46694;54.382;9.708;2023-03-15T15:17:29;7.00;99.90
60860;DHT22;46694;54.382;9.708;2023-03-15T15:20:09;7.00;99.90
60860;DHT22;46694;54.382;9.708;2023-03-15T15:22:50;7.00;99.90
60860;DHT22;46694;54.382;9.708;2023-03-15T15:25:30;7.00;99.90
60860;DHT22;46694;54.382;9.708;2023-03-15T15:28:11;7.00;99.90
60860;DHT22;46694;54.382;9.708;2023-03-15T15:30:51;7.10;99.90
60860;DHT22;46694;54.382;9.708;2023-03-15T15:33:30;7.20;99.90
60860;DHT22;46694;54.382;9.708;2023-03-15T15:36:13;7.30;99.90
60860;DHT22;46694;54.382;9.708;2023-03-15T15:38:54;7.20;99.90
60860;DHT22;46694;54.382;9.708;2023-03-15T15:41:34;7.10;99.90
60860;DHT22;46694;54.382;9.708;2023-03-15T15:44:15;7.10;99.90
60860;DHT22;46694;54.382;9.708;2023-03-15T15:46:56;7.10;99.90
60860;DHT22;46694;54.382;9.708;2023-03-15T15:49:35;7.10;99.90
60860;DHT22;46694;54.382;9.708;2023-03-15T15:52:15;7.10;99.90
60860;DHT22;46694;54.382;9.708;2023-03-15T15:54:55;7.00;99.90
60860;DHT22;46694;54.382;9.708;2023-03-15T15:57:34;7.00;99.90
60860;DHT22;46694;54.382;9.708;2023-03-15T16:00:20;7.00;99.90
60860;DHT22;46694;54.382;9.708;2023-03-15T16:03:13;6.90;99.90
60860;DHT22;46694;54.382;9.708;2023-03-15T16:05:55;6.90;99.90
60860;DHT22;46694;54.382;9.708;2023-03-15T16:08:37;6.80;99.90
60860;DHT22;46694;54.382;9.708;2023-03-15T16:11:17;6.70;99.90
60860;DHT22;46694;54.382;9.708;2023-03-15T16:14:00;6.70;99.90
60860;DHT22;46694;54.382;9.708;2023-03-15T16:16:40;6.60;99.90
60860;DHT22;46694;54.382;9.708;2023-03-15T16:19:20;6.60;99.90
60860;DHT22;46694;54.382;9.708;2023-03-15T16:21:59;6.50;99.90
60860;DHT22;46694;54.382;9.708;2023-03-15T16:24:39;6.50;99.90
60860;DHT22;46694;54.382;9.708;2023-03-15T16:27:24;6.50;99.90
60860;DHT22;46694;54.382;9.708;2023-03-15T16:30:06;6.50;99.90
60860;DHT22;46694;54.382;9.708;2023-03-15T16:32:47;6.50;99.90
60860;DHT22;46694;54.382;9.708;2023-03-15T16:35:33;6.50;99.90
60860;DHT22;46694;54.382;9.708;2023-03-15T16:38:16;6.40;99.90
60860;DHT22;46694;54.382;9.708;2023-03-15T16:41:02;6.40;99.90
60860;DHT22;46694;54.382;9.708;2023-03-15T16:43:41;6.40;99.90
60860;DHT22;46694;54.382;9.708;2023-03-15T16:46:21;6.40;99.90
60860;DHT22;46694;54.382;9.708;2023-03-15T16:49:01;6.30;99.90
60860;DHT22;46694;54.382;9.708;2023-03-15T16:51:51;6.30;99.90
60860;DHT22;46694;54.382;9.708;2023-03-15T16:54:33;6.30;99.90
60860;DHT22;46694;54.382;9.708;2023-03-15T16:57:17;6.30;99.90
60860;DHT22;46694;54.382;9.708;2023-03-15T16:59:59;6.30;99.90
60860;DHT22;46694;54.382;9.708;2023-03-15T17:02:39;6.30;99.90
60860;DHT22;46694;54.382;9.708;2023-03-15T17:05:19;6.20;99.90
60860;DHT22;46694;54.382;9.708;2023-03-15T17:07:59;6.20;99.90
60860;DHT22;46694;54.382;9.708;2023-03-15T17:10:39;6.10;99.90
60860;DHT22;46694;54.382;9.708;2023-03-15T17:13:25;6.10;99.90
60860;DHT22;46694;54.382;9.708;2023-03-15T17:16:13;6.00;99.90
60860;DHT22;46694;54.382;9.708;2023-03-15T17:18:53;6.00;99.90
60860;DHT22;46694;54.382;9.708;2023-03-15T17:21:34;6.00;99.90
60860;DHT22;46694;54.382;9.708;2023-03-15T17:24:14;5.90;99.90
60860;DHT22;46694;54.382;9.708;2023-03-15T17:26:54;5.90;99.90
60860;DHT22;46694;54.382;9.708;2023-03-15T17:29:33;5.90;99.90
60860;DHT22;46694;54.382;9.708;2023-03-15T17:32:13;5.80;99.90
60860;DHT22;46694;54.382;9.708;2023-03-15T17:34:52;5.80;99.90
60860;DHT22;46694;54.382;9.708;2023-03-15T17:37:37;5.80;99.90
60860;DHT22;46694;54.382;9.708;2023-03-15T17:40:24;5.70;99.90
60860;DHT22;46694;54.382;9.708;2023-03-15T17:43:13;5.70;99.90
60860;DHT22;46694;54.382;9.708;2023-03-15T17:45:53;5.70;99.90
60860;DHT22;46694;54.382;9.708;2023-03-15T17:48:33;5.70;99.90
60860;DHT22;46694;54.382;9.708;2023-03-15T17:51:17;5.60;99.90
60860;DHT22;46694;54.382;9.708;2023-03-15T17:53:59;5.60;99.90
60860;DHT22;46694;54.382;9.708;2023-03-15T17:56:39;5.60;99.90
60860;DHT22;46694;54.382;9.708;2023-03-15T17:59:19;5.50;99.90
60860;DHT22;46694;54.382;9.708;2023-03-15T18:01:58;5.50;99.90
60860;DHT22;46694;54.382;9.708;2023-03-15T18:04:38;5.40;99.90
60860;DHT22;46694;54.382;9.708;2023-03-15T18:07:18;5.40;99.90
60860;DHT22;46694;54.382;9.708;2023-03-15T18:09:57;5.30;99.90
60860;DHT22;46694;54.382;9.708;2023-03-15T18:12:38;5.30;99.90
60860;DHT22;46694;54.382;9.708;2023-03-15T18:15:21;5.30;99.90
60860;DHT22;46694;54.382;9.708;2023-03-15T18:18:01;5.30;99.90
60860;DHT22;46694;54.382;9.708;2023-03-15T18:20:41;5.20;99.90
60860;DHT22;46694;54.382;9.708;2023-03-15T18:23:21;5.20;99.90